Time;durP1;ratioP1;P1;durP2;ratioP2;P2;SDS_P1;SDS_P2;PMS_P1;PMS_P2;Temp;Humidity;BMP_temperature;BMP_pressure;BME280_temperature;BME280_humidity;BME280_pressure;Samples;Min_cycle;Max_cycle;Signal;HPM_P1;HPM_P2
2022/11/13 00:02:17;;;;;;;5.70;5.07;;;8.80;99.90;;;;;;5057931;28;20176;-86
2022/11/13 00:04:43;;;;;;;5.83;4.93;;;8.90;99.90;;;;;;5056608;28;20182;-85
2022/11/13 00:07:09;;;;;;;5.33;4.80;;;8.90;99.90;;;;;;5056673;28;20252;-84
2022/11/13 00:09:35;;;;;;;7.03;5.23;;;9.00;99.90;;;;;;5062802;28;20205;-86
2022/11/13 00:12:00;;;;;;;5.50;4.90;;;9.00;99.90;;;;;;5056907;28;20666;-85
2022/11/13 00:14:26;;;;;;;6.63;4.90;;;9.00;99.90;;;;;;5038494;28;20190;-87
2022/11/13 00:16:52;;;;;;;7.27;5.47;;;8.80;99.90;;;;;;5056139;28;20218;-85
2022/11/13 00:19:18;;;;;;;6.67;5.13;;;8.80;99.90;;;;;;5056316;28;20209;-85
2022/11/13 00:21:44;;;;;;;5.40;4.83;;;8.80;99.90;;;;;;5038858;28;20214;-84
2022/11/13 00:24:10;;;;;;;5.53;4.40;;;8.90;99.90;;;;;;5055775;28;20181;-80
2022/11/13 00:26:38;;;;;;;5.53;4.73;;;8.80;99.90;;;;;;5055741;28;20650;-79
2022/11/13 00:29:04;;;;;;;5.57;4.53;;;8.80;99.90;;;;;;5037835;28;20531;-81
2022/11/13 00:31:32;;;;;;;5.73;4.80;;;8.80;99.90;;;;;;5055285;28;20190;-80
2022/11/13 00:34:00;;;;;;;5.33;4.83;;;8.80;99.90;;;;;;5037595;28;20224;-80
2022/11/13 00:36:31;;;;;;;5.60;4.93;;;8.80;99.90;;;;;;5037467;28;20206;-86
2022/11/13 00:38:57;;;;;;;8.03;4.80;;;8.80;99.90;;;;;;5038146;28;20220;-84
2022/11/13 00:41:24;;;;;;;6.50;5.83;;;8.80;99.90;;;;;;5038115;28;20640;-82
2022/11/13 00:43:50;;;;;;;6.07;5.17;;;8.90;99.90;;;;;;5056278;28;20182;-84
2022/11/13 00:46:15;;;;;;;6.10;5.10;;;8.90;99.90;;;;;;5055564;28;20185;-82
2022/11/13 00:48:41;;;;;;;8.63;5.23;;;8.90;99.90;;;;;;5055536;28;20191;-83
2022/11/13 00:51:07;;;;;;;5.30;4.80;;;8.90;99.90;;;;;;5061158;28;20196;-81
2022/11/13 00:53:33;;;;;;;5.53;4.70;;;8.80;99.90;;;;;;5062341;28;20189;-84
2022/11/13 00:55:59;;;;;;;6.13;4.83;;;8.70;99.90;;;;;;5060914;28;20230;-84
2022/11/13 00:58:25;;;;;;;6.37;4.80;;;8.70;99.90;;;;;;5056090;28;20205;-82
2022/11/13 01:00:51;;;;;;;5.30;4.80;;;8.70;99.90;;;;;;5055809;28;20176;-82
2022/11/13 01:03:17;;;;;;;5.37;4.83;;;8.70;99.90;;;;;;5061202;28;20667;-80
2022/11/13 01:05:45;;;;;;;5.20;4.70;;;8.70;99.90;;;;;;5055228;28;20182;-79
2022/11/13 01:08:12;;;;;;;6.10;4.77;;;8.70;99.90;;;;;;5054984;28;20183;-81
2022/11/13 01:10:42;;;;;;;5.13;4.67;;;8.70;99.90;;;;;;5054741;28;20181;-81
2022/11/13 01:13:07;;;;;;;5.37;4.47;;;8.70;99.90;;;;;;5054950;28;20185;-79
2022/11/13 01:15:33;;;;;;;5.63;5.03;;;8.70;99.90;;;;;;5036391;28;20195;-82
2022/11/13 01:17:59;;;;;;;4.80;4.40;;;8.60;99.90;;;;;;5054673;28;20244;-79
2022/11/13 01:20:25;;;;;;;5.10;4.57;;;8.50;99.90;;;;;;5036924;28;20226;-82
2022/11/13 01:22:51;;;;;;;5.57;5.00;;;8.50;99.90;;;;;;5055067;28;20190;-80
2022/11/13 01:25:17;;;;;;;5.03;4.53;;;8.50;99.90;;;;;;5054998;28;20672;-80
2022/11/13 01:27:46;;;;;;;6.13;5.07;;;8.40;99.90;;;;;;5054588;28;20188;-80
2022/11/13 01:30:11;;;;;;;5.90;5.30;;;8.40;99.90;;;;;;5054546;28;20185;-81
2022/11/13 01:32:37;;;;;;;5.90;5.30;;;8.30;99.90;;;;;;5036471;28;20195;-81
2022/11/13 01:35:03;;;;;;;5.93;4.40;;;8.20;99.90;;;;;;5054308;28;20264;-80
2022/11/13 01:37:32;;;;;;;5.60;5.03;;;8.20;99.90;;;;;;5054237;28;20273;-81
2022/11/13 01:39:58;;;;;;;6.40;4.83;;;8.20;99.90;;;;;;5054389;28;20245;-81
2022/11/13 01:42:25;;;;;;;5.60;5.10;;;8.20;99.90;;;;;;5053809;28;20512;-82
2022/11/13 01:44:56;;;;;;;7.17;5.17;;;8.10;99.90;;;;;;5054266;28;20184;-80
2022/11/13 01:47:23;;;;;;;5.70;5.10;;;8.10;99.90;;;;;;5056064;28;20178;-85
2022/11/13 01:49:56;;;;;;;6.10;5.10;;;8.00;99.90;;;;;;5069715;28;20184;-86
2022/11/13 01:52:31;;;;;;;7.63;5.83;;;7.90;99.90;;;;;;5060373;28;20183;-85
2022/11/13 01:55:02;;;;;;;7.27;5.37;;;7.80;99.90;;;;;;5054559;28;20212;-81
2022/11/13 01:57:29;;;;;;;5.73;5.13;;;7.90;99.90;;;;;;5054042;28;20175;-80
2022/11/13 02:00:03;;;;;;;5.40;4.90;;;7.80;99.90;;;;;;5053878;28;20246;-81
2022/11/13 02:02:30;;;;;;;6.70;5.53;;;7.80;99.90;;;;;;5054159;28;20199;-79
2022/11/13 02:04:56;;;;;;;5.73;5.23;;;7.80;99.90;;;;;;5053916;28;20176;-80
2022/11/13 02:07:23;;;;;;;5.73;4.87;;;7.80;99.90;;;;;;5036835;28;20191;-84
2022/11/13 02:09:53;;;;;;;7.10;5.53;;;7.80;99.90;;;;;;5054374;28;20175;-84
2022/11/13 02:12:35;;;;;;;5.23;4.77;;;7.80;99.90;;;;;;5036413;28;20194;-82
2022/11/13 02:15:08;;;;;;;5.00;4.60;;;7.70;99.90;;;;;;5054113;28;20182;-80
2022/11/13 02:17:43;;;;;;;5.33;4.83;;;7.50;99.90;;;;;;5054181;28;20258;-80
2022/11/13 02:20:12;;;;;;;5.50;5.00;;;7.50;99.90;;;;;;5065503;28;20542;-80
2022/11/13 02:23:01;;;;;;;6.03;5.07;;;7.40;99.90;;;;;;5054455;28;20262;-82
2022/11/13 02:25:28;;;;;;;5.97;5.43;;;7.40;99.90;;;;;;5036292;28;20194;-82
2022/11/13 02:27:54;;;;;;;9.03;5.13;;;7.40;99.90;;;;;;5054237;28;20658;-80
2022/11/13 02:30:29;;;;;;;6.27;5.30;;;7.30;99.90;;;;;;5066438;28;20172;-80
2022/11/13 02:32:56;;;;;;;5.20;4.70;;;7.30;99.90;;;;;;5055779;28;20166;-84
2022/11/13 02:35:29;;;;;;;5.77;5.17;;;7.30;99.90;;;;;;5035642;28;20674;-82
2022/11/13 02:37:57;;;;;;;7.37;5.27;;;7.20;99.90;;;;;;5053698;28;20199;-84
2022/11/13 02:40:24;;;;;;;5.63;4.70;;;7.20;99.90;;;;;;5053496;28;20711;-83
2022/11/13 02:42:49;;;;;;;6.80;5.47;;;7.30;99.90;;;;;;5053385;28;20190;-81
2022/11/13 02:45:15;;;;;;;6.30;5.10;;;7.20;99.90;;;;;;5053389;28;20187;-83
2022/11/13 02:47:41;;;;;;;6.23;5.27;;;7.10;99.90;;;;;;5053865;28;20527;-80
2022/11/13 02:50:09;;;;;;;5.63;5.00;;;7.10;99.90;;;;;;5052987;28;20621;-83
2022/11/13 02:52:35;;;;;;;5.20;4.80;;;7.20;99.90;;;;;;5053214;28;20511;-80
2022/11/13 02:55:01;;;;;;;5.87;5.10;;;7.20;99.90;;;;;;5053065;28;20182;-82
2022/11/13 02:57:26;;;;;;;6.07;4.93;;;7.20;99.90;;;;;;5053671;28;20262;-79
2022/11/13 02:59:52;;;;;;;8.80;5.60;;;7.10;99.90;;;;;;5053201;28;20216;-81
2022/11/13 03:02:18;;;;;;;5.00;4.50;;;7.10;99.90;;;;;;5052907;28;20180;-80
2022/11/13 03:04:45;;;;;;;6.00;5.10;;;7.00;99.90;;;;;;5052796;28;20543;-82
2022/11/13 03:07:12;;;;;;;6.57;5.33;;;6.90;99.90;;;;;;5052799;28;20178;-79
2022/11/13 03:09:41;;;;;;;6.47;4.87;;;7.00;99.90;;;;;;5052855;28;20187;-81
2022/11/13 03:12:08;;;;;;;5.37;4.67;;;6.90;99.90;;;;;;5052814;28;20550;-83
2022/11/13 03:14:34;;;;;;;6.57;5.00;;;6.90;99.90;;;;;;5052996;28;20188;-84
2022/11/13 03:17:01;;;;;;;6.00;5.07;;;6.90;99.90;;;;;;5052848;28;20245;-83
2022/11/13 03:19:27;;;;;;;6.57;5.07;;;6.90;99.90;;;;;;5035840;28;20705;-81
2022/11/13 03:21:53;;;;;;;5.83;5.30;;;6.80;99.90;;;;;;5054700;28;20284;-83
2022/11/13 03:24:19;;;;;;;6.50;5.73;;;6.80;99.90;;;;;;5056373;28;20657;-81
2022/11/13 03:26:45;;;;;;;6.07;5.50;;;6.80;99.90;;;;;;5035673;28;20194;-85
2022/11/13 03:29:11;;;;;;;8.53;5.00;;;6.70;99.90;;;;;;5052803;28;20599;-85
2022/11/13 03:31:37;;;;;;;6.27;5.40;;;6.70;99.90;;;;;;5052765;28;20239;-83
2022/11/13 03:34:03;;;;;;;7.57;5.70;;;6.70;99.90;;;;;;5052504;28;20222;-79
2022/11/13 03:36:28;;;;;;;5.63;5.07;;;6.60;99.90;;;;;;5052638;28;20259;-80
2022/11/13 03:38:54;;;;;;;7.03;4.90;;;6.50;99.90;;;;;;5055756;28;20218;-84
2022/11/13 03:41:22;;;;;;;6.10;5.03;;;6.50;99.90;;;;;;5053651;28;20592;-86
2022/11/13 03:43:48;;;;;;;5.60;5.10;;;6.50;99.90;;;;;;5052684;28;20182;-83
2022/11/13 03:46:14;;;;;;;6.03;5.47;;;6.50;99.90;;;;;;5034834;28;20661;-87
2022/11/13 03:48:40;;;;;;;6.23;5.33;;;6.40;99.90;;;;;;5069633;28;20186;-85
2022/11/13 03:51:06;;;;;;;6.77;5.27;;;6.30;99.90;;;;;;5056585;28;20828;-83
2022/11/13 03:53:32;;;;;;;6.00;5.37;;;6.30;99.90;;;;;;5053385;28;20185;-86
2022/11/13 03:55:58;;;;;;;6.30;5.70;;;6.30;99.90;;;;;;5053185;28;20227;-86
2022/11/13 03:58:24;;;;;;;5.70;5.17;;;6.30;99.90;;;;;;5065984;28;20216;-83
2022/11/13 04:00:52;;;;;;;5.77;5.20;;;6.30;99.90;;;;;;5058225;28;20181;-86
2022/11/13 04:03:18;;;;;;;5.53;4.90;;;6.30;99.90;;;;;;5034996;28;20622;-83
2022/11/13 04:05:48;;;;;;;5.37;4.87;;;6.20;99.90;;;;;;5052451;28;20179;-84
2022/11/13 04:08:14;;;;;;;6.00;5.30;;;6.30;99.90;;;;;;5056178;28;20210;-80
2022/11/13 04:10:41;;;;;;;8.77;5.40;;;6.20;99.90;;;;;;5056106;28;20188;-83
2022/11/13 04:13:07;;;;;;;9.43;4.73;;;6.10;99.90;;;;;;5055949;28;20654;-86
2022/11/13 04:15:33;;;;;;;6.03;5.20;;;6.00;99.90;;;;;;5037891;28;20225;-83
2022/11/13 04:17:59;;;;;;;5.67;5.10;;;6.00;99.90;;;;;;5038013;28;20227;-83
2022/11/13 04:20:26;;;;;;;6.97;5.57;;;6.10;99.90;;;;;;5056570;28;20271;-84
2022/11/13 04:22:56;;;;;;;5.40;4.90;;;6.10;99.90;;;;;;5038559;28;20189;-86
2022/11/13 04:25:23;;;;;;;5.43;4.80;;;6.10;99.90;;;;;;5038208;28;20193;-81
2022/11/13 04:27:52;;;;;;;5.87;5.10;;;6.10;99.90;;;;;;5055989;28;20236;-81
2022/11/13 04:30:21;;;;;;;5.90;5.30;;;6.10;99.90;;;;;;5055771;28;20197;-82
2022/11/13 04:32:47;;;;;;;5.40;4.90;;;6.10;99.90;;;;;;5058051;28;20224;-80
2022/11/13 04:35:12;;;;;;;6.07;5.47;;;6.10;99.90;;;;;;5058638;28;20193;-83
2022/11/13 04:37:38;;;;;;;6.43;5.73;;;6.00;99.90;;;;;;5057119;28;20183;-82
2022/11/13 04:40:05;;;;;;;6.97;5.13;;;6.00;99.90;;;;;;5056616;28;20241;-81
2022/11/13 04:42:48;;;;;;;6.10;5.50;;;5.90;99.90;;;;;;5056881;28;20264;-82
2022/11/13 04:45:18;;;;;;;7.37;6.00;;;5.80;99.90;;;;;;5065608;28;20169;-80
2022/11/13 04:47:44;;;;;;;6.70;5.63;;;5.80;99.90;;;;;;5061902;28;20189;-83
2022/11/13 04:50:10;;;;;;;6.70;6.00;;;5.80;99.90;;;;;;5057311;28;20657;-81
2022/11/13 04:52:36;;;;;;;8.93;6.30;;;5.80;99.90;;;;;;5056232;28;20254;-86
2022/11/13 04:55:02;;;;;;;8.40;6.67;;;5.90;99.90;;;;;;5057204;28;20291;-82
2022/11/13 04:57:31;;;;;;;6.90;6.07;;;5.90;99.90;;;;;;5056760;28;20191;-85
2022/11/13 04:59:57;;;;;;;7.53;6.10;;;5.90;99.90;;;;;;5059442;28;20600;-82
2022/11/13 05:02:25;;;;;;;8.53;6.17;;;5.90;99.90;;;;;;5059504;28;20180;-82
2022/11/13 05:04:54;;;;;;;7.30;5.80;;;6.00;99.90;;;;;;5057063;28;20182;-80
2022/11/13 05:07:20;;;;;;;7.23;6.53;;;5.90;99.90;;;;;;5055604;28;20172;-82
2022/11/13 05:09:46;;;;;;;7.27;5.87;;;6.00;99.90;;;;;;5055453;28;20206;-81
2022/11/13 05:12:11;;;;;;;8.00;6.43;;;6.10;99.90;;;;;;5055917;28;20602;-80
2022/11/13 05:14:39;;;;;;;8.17;6.30;;;6.00;99.90;;;;;;5055775;28;20189;-82
2022/11/13 05:17:10;;;;;;;7.93;6.83;;;6.10;99.90;;;;;;5039204;28;20257;-82
2022/11/13 05:19:42;;;;;;;8.40;7.20;;;6.30;99.90;;;;;;5055720;28;20209;-82
2022/11/13 05:22:08;;;;;;;7.77;6.37;;;6.40;99.90;;;;;;5038763;28;20616;-82
2022/11/13 05:24:37;;;;;;;8.57;6.53;;;6.50;99.90;;;;;;5056259;28;20268;-81
2022/11/13 05:27:03;;;;;;;7.10;6.27;;;6.60;99.90;;;;;;5053997;28;20204;-85
2022/11/13 05:29:30;;;;;;;8.33;6.47;;;6.50;99.90;;;;;;5058159;28;20636;-85
2022/11/13 05:31:55;;;;;;;8.50;6.90;;;6.60;99.90;;;;;;5058820;28;20177;-83
2022/11/13 05:34:21;;;;;;;11.53;7.27;;;6.60;99.90;;;;;;5057871;28;20179;-85
2022/11/13 05:36:47;;;;;;;7.23;6.53;;;6.60;99.90;;;;;;5053914;28;20283;-82
2022/11/13 05:39:13;;;;;;;7.40;6.70;;;6.70;99.90;;;;;;5055696;28;20214;-84
2022/11/13 05:41:39;;;;;;;9.17;7.50;;;6.70;99.90;;;;;;5055682;28;20179;-82
2022/11/13 05:44:04;;;;;;;7.80;6.80;;;6.70;99.90;;;;;;5054973;28;20226;-83
2022/11/13 05:46:30;;;;;;;7.33;6.60;;;6.60;99.90;;;;;;5056394;28;20181;-80
2022/11/13 05:48:59;;;;;;;9.37;7.40;;;6.70;99.90;;;;;;5056975;28;20177;-84
2022/11/13 05:51:28;;;;;;;8.93;7.27;;;6.70;99.90;;;;;;5058499;28;20209;-81
2022/11/13 05:53:55;;;;;;;8.53;7.63;;;6.60;99.90;;;;;;5057924;28;20183;-83
2022/11/13 05:56:25;;;;;;;7.87;7.07;;;6.70;99.90;;;;;;5037291;28;20645;-80
2022/11/13 05:58:52;;;;;;;7.97;7.13;;;6.70;99.90;;;;;;5037095;28;20213;-82
2022/11/13 06:01:24;;;;;;;8.57;6.97;;;6.70;99.90;;;;;;5054473;28;20509;-80
2022/11/13 06:03:51;;;;;;;12.73;7.53;;;6.70;99.90;;;;;;5054134;28;20187;-80
2022/11/13 06:06:20;;;;;;;9.23;7.20;;;6.70;99.90;;;;;;5053932;28;20181;-82
2022/11/13 06:08:47;;;;;;;10.70;7.83;;;6.60;99.90;;;;;;5055086;28;20261;-83
2022/11/13 06:11:16;;;;;;;9.23;7.90;;;6.70;99.90;;;;;;5055460;28;20269;-82
2022/11/13 06:13:42;;;;;;;9.03;7.40;;;6.60;99.90;;;;;;5054126;28;20172;-81
2022/11/13 06:16:14;;;;;;;8.90;7.30;;;6.70;99.90;;;;;;5054254;28;20389;-79
2022/11/13 06:18:42;;;;;;;8.33;7.27;;;6.80;99.90;;;;;;5053874;28;20227;-79
2022/11/13 06:21:21;;;;;;;9.90;8.17;;;6.90;99.90;;;;;;5054449;28;20180;-80
2022/11/13 06:23:48;;;;;;;8.50;7.17;;;6.80;99.90;;;;;;5036583;28;20261;-83
2022/11/13 06:26:26;;;;;;;8.63;7.20;;;6.80;99.90;;;;;;5053902;28;20180;-84
2022/11/13 06:28:52;;;;;;;13.70;8.67;;;6.80;99.90;;;;;;5054073;28;20189;-82
2022/11/13 06:31:26;;;;;;;9.03;7.20;;;6.80;99.90;;;;;;5055280;28;20192;-84
2022/11/13 06:33:52;;;;;;;10.80;7.40;;;6.90;99.90;;;;;;5064718;28;20258;-81
2022/11/13 06:36:21;;;;;;;7.90;6.53;;;6.90;99.90;;;;;;5057657;28;20219;-82
2022/11/13 06:38:47;;;;;;;7.70;6.47;;;6.80;99.90;;;;;;5037533;28;20224;-81
2022/11/13 06:41:15;;;;;;;7.90;6.20;;;6.80;99.90;;;;;;5057210;28;20189;-84
2022/11/13 06:43:41;;;;;;;8.63;6.37;;;6.80;99.90;;;;;;5055635;28;20176;-80
2022/11/13 06:46:11;;;;;;;5.93;5.33;;;6.90;99.90;;;;;;5056241;28;20327;-82
2022/11/13 06:48:37;;;;;;;7.93;5.57;;;6.90;99.90;;;;;;5055052;28;20182;-84
2022/11/13 06:51:05;;;;;;;6.70;5.80;;;6.80;99.90;;;;;;5054658;28;20300;-85
2022/11/13 06:53:33;;;;;;;6.57;5.50;;;6.90;99.90;;;;;;5036607;28;20183;-82
2022/11/13 06:56:00;;;;;;;8.00;6.10;;;6.80;99.90;;;;;;5041716;28;20258;-80
2022/11/13 06:58:26;;;;;;;7.43;6.43;;;6.90;99.90;;;;;;5056577;28;20210;-81
2022/11/13 07:00:52;;;;;;;9.27;7.00;;;7.00;99.90;;;;;;5036119;28;20648;-84
2022/11/13 07:03:20;;;;;;;9.80;7.27;;;6.90;99.90;;;;;;5052317;28;20179;-84
2022/11/13 07:05:46;;;;;;;9.67;7.00;;;6.90;99.90;;;;;;5054565;28;20207;-82
2022/11/13 07:08:13;;;;;;;9.13;6.67;;;7.00;99.90;;;;;;5055045;28;20187;-83
2022/11/13 07:10:39;;;;;;;8.53;6.80;;;7.10;99.90;;;;;;5038361;28;20176;-85
2022/11/13 07:13:05;;;;;;;8.60;7.10;;;7.20;99.90;;;;;;5054145;28;20186;-79
2022/11/13 07:15:36;;;;;;;8.80;6.97;;;7.20;99.90;;;;;;5053991;28;20200;-82
2022/11/13 07:18:03;;;;;;;8.40;7.00;;;7.30;99.90;;;;;;5055920;28;20579;-82
2022/11/13 07:20:29;;;;;;;12.63;8.40;;;7.40;99.90;;;;;;5053805;28;20186;-82
2022/11/13 07:22:57;;;;;;;13.30;8.13;;;7.40;99.90;;;;;;5054852;28;20182;-82
2022/11/13 07:25:36;;;;;;;10.57;7.37;;;7.40;99.90;;;;;;5054712;28;20182;-83
2022/11/13 07:28:08;;;;;;;7.83;6.90;;;7.40;99.90;;;;;;5055651;28;20172;-84
2022/11/13 07:30:40;;;;;;;9.67;7.27;;;7.40;99.90;;;;;;5056514;28;20187;-86
2022/11/13 07:33:09;;;;;;;8.67;7.33;;;7.20;99.90;;;;;;5055092;28;20301;-81
2022/11/13 07:35:37;;;;;;;12.10;7.53;;;7.10;99.90;;;;;;5054602;28;20218;-81
2022/11/13 07:38:03;;;;;;;9.23;7.90;;;7.10;99.90;;;;;;5055683;28;20253;-86
2022/11/13 07:40:32;;;;;;;11.00;7.50;;;7.10;99.90;;;;;;5057060;28;20178;-78
2022/11/13 07:42:59;;;;;;;10.23;7.20;;;7.20;99.90;;;;;;5039550;28;20661;-85
2022/11/13 07:45:26;;;;;;;9.63;7.23;;;7.20;99.90;;;;;;5058444;28;20206;-83
2022/11/13 07:47:58;;;;;;;11.27;7.73;;;7.40;99.90;;;;;;5058777;28;20180;-84
2022/11/13 07:50:24;;;;;;;9.13;7.20;;;7.50;99.90;;;;;;5058485;28;20182;-85
2022/11/13 07:52:57;;;;;;;10.67;8.53;;;7.50;99.90;;;;;;5042136;28;20214;-84
2022/11/13 07:55:23;;;;;;;11.70;8.17;;;7.60;99.90;;;;;;5043136;28;20194;-83
2022/11/13 07:57:49;;;;;;;10.23;7.80;;;7.70;99.90;;;;;;5060958;28;20186;-80
2022/11/13 08:00:16;;;;;;;9.60;8.60;;;7.70;99.90;;;;;;5070506;28;20203;-82
2022/11/13 08:02:42;;;;;;;13.30;8.47;;;7.80;99.90;;;;;;5057458;28;20666;-84
2022/11/13 08:05:08;;;;;;;12.50;8.17;;;7.80;99.90;;;;;;5058078;28;20186;-81
2022/11/13 08:07:37;;;;;;;10.93;8.40;;;7.80;99.90;;;;;;5058262;28;20533;-79
2022/11/13 08:10:03;;;;;;;10.23;7.80;;;7.80;99.90;;;;;;5057810;28;20250;-81
2022/11/13 08:12:28;;;;;;;10.10;8.10;;;7.80;99.90;;;;;;5057726;28;20180;-83
2022/11/13 08:14:54;;;;;;;10.43;7.97;;;7.80;99.90;;;;;;5060073;28;20217;-81
2022/11/13 08:17:20;;;;;;;11.10;8.20;;;7.80;99.90;;;;;;5061947;28;20219;-81
2022/11/13 08:19:46;;;;;;;10.50;8.10;;;7.90;99.90;;;;;;5059293;28;20293;-81
2022/11/13 08:22:12;;;;;;;15.27;8.63;;;8.00;99.90;;;;;;5058373;28;20268;-82
2022/11/13 08:24:38;;;;;;;12.80;8.30;;;8.10;99.90;;;;;;5066676;28;20517;-79
2022/11/13 08:27:05;;;;;;;9.43;7.90;;;8.20;99.90;;;;;;5075110;28;20176;-86
2022/11/13 08:29:31;;;;;;;11.37;7.90;;;8.30;99.90;;;;;;5061397;28;20175;-85
2022/11/13 08:31:57;;;;;;;9.80;8.00;;;8.40;99.90;;;;;;5057615;28;20188;-80
2022/11/13 08:34:23;;;;;;;11.03;8.27;;;8.50;99.90;;;;;;5058164;28;20256;-82
2022/11/13 08:36:49;;;;;;;13.23;8.87;;;8.50;99.90;;;;;;5058291;28;20187;-83
2022/11/13 08:39:15;;;;;;;14.10;9.63;;;8.60;99.90;;;;;;5058736;28;20224;-83
2022/11/13 08:41:41;;;;;;;11.90;9.00;;;8.70;99.90;;;;;;5056613;28;20191;-81
2022/11/13 08:44:07;;;;;;;12.17;9.03;;;8.70;99.90;;;;;;5056945;28;20184;-80
2022/11/13 08:46:33;;;;;;;12.00;9.57;;;8.70;99.90;;;;;;5057509;28;20259;-82
2022/11/13 08:48:59;;;;;;;12.93;9.23;;;8.80;99.90;;;;;;5056618;28;20271;-84
2022/11/13 08:51:24;;;;;;;15.90;9.87;;;8.90;99.90;;;;;;5056522;28;20180;-84
2022/11/13 08:53:50;;;;;;;13.63;10.43;;;8.80;99.90;;;;;;5057871;28;20191;-84
2022/11/13 08:56:16;;;;;;;14.77;10.87;;;8.90;99.90;;;;;;5057578;28;20656;-82
2022/11/13 08:58:42;;;;;;;16.63;11.90;;;8.80;99.90;;;;;;5057512;28;20280;-87
2022/11/13 09:01:08;;;;;;;17.30;10.33;;;8.90;99.90;;;;;;5058704;28;20374;-82
2022/11/13 09:03:35;;;;;;;17.17;11.20;;;8.90;99.90;;;;;;5055267;28;20223;-85
2022/11/13 09:06:07;;;;;;;18.00;11.30;;;8.90;99.90;;;;;;5057205;28;20176;-83
2022/11/13 09:08:34;;;;;;;15.40;11.53;;;8.90;99.90;;;;;;5057116;28;20168;-81
2022/11/13 09:11:06;;;;;;;15.17;11.07;;;9.00;99.90;;;;;;5056774;28;20177;-86
2022/11/13 09:13:33;;;;;;;15.17;11.73;;;9.00;99.90;;;;;;5056919;28;20536;-81
2022/11/13 09:16:00;;;;;;;15.70;11.63;;;9.00;99.90;;;;;;5056671;28;20248;-82
2022/11/13 09:18:27;;;;;;;16.97;12.13;;;9.10;99.90;;;;;;5057590;28;20201;-81
2022/11/13 09:20:53;;;;;;;20.23;12.17;;;9.10;99.90;;;;;;5056300;28;20174;-83
2022/11/13 09:23:20;;;;;;;16.50;11.50;;;9.10;99.90;;;;;;5056293;28;20176;-81
2022/11/13 09:25:46;;;;;;;22.07;12.30;;;9.20;99.90;;;;;;5055666;28;20639;-81
2022/11/13 09:28:12;;;;;;;17.07;11.93;;;9.20;99.90;;;;;;5058684;28;20178;-82
2022/11/13 09:30:39;;;;;;;17.97;12.20;;;9.30;99.90;;;;;;5058468;28;20183;-83
2022/11/13 09:33:05;;;;;;;18.13;11.93;;;9.50;99.90;;;;;;5063070;28;20183;-85
2022/11/13 09:35:35;;;;;;;16.50;11.50;;;9.50;99.90;;;;;;5058441;28;20197;-84
2022/11/13 09:38:01;;;;;;;17.30;12.37;;;9.50;99.90;;;;;;5058752;28;20186;-83
2022/11/13 09:40:32;;;;;;;20.57;12.00;;;9.50;99.90;;;;;;5056767;28;20654;-85
2022/11/13 09:43:00;;;;;;;18.27;11.67;;;9.50;99.90;;;;;;5058494;28;20263;-85
2022/11/13 09:45:26;;;;;;;16.53;12.00;;;9.50;99.90;;;;;;5057687;28;20186;-80
2022/11/13 09:47:54;;;;;;;19.20;12.40;;;9.50;99.90;;;;;;5055648;28;20219;-81
2022/11/13 09:50:26;;;;;;;17.33;11.77;;;9.60;99.90;;;;;;5055841;28;20193;-79
2022/11/13 09:52:53;;;;;;;14.80;11.23;;;9.60;99.90;;;;;;5055759;28;20256;-80
2022/11/13 09:55:24;;;;;;;14.97;11.53;;;9.70;99.90;;;;;;5059663;28;20179;-81
2022/11/13 09:58:11;;;;;;;13.73;10.53;;;9.80;99.90;;;;;;5061066;28;20174;-85
2022/11/13 10:00:38;;;;;;;14.63;10.57;;;9.90;99.90;;;;;;5057206;28;20206;-85
2022/11/13 10:03:06;;;;;;;15.87;11.20;;;9.90;99.90;;;;;;5056263;28;20215;-83
2022/11/13 10:05:58;;;;;;;14.87;10.23;;;9.90;99.90;;;;;;5058850;28;20180;-85
2022/11/13 10:08:35;;;;;;;14.57;10.83;;;9.90;99.90;;;;;;5057895;28;20210;-86
2022/11/13 10:11:48;;;;;;;20.50;14.47;;;10.00;99.90;;;;;;5068675;28;20249;-85
2022/11/13 10:14:22;;;;;;;18.17;11.50;;;10.00;99.90;;;;;;5055252;28;20233;-85
2022/11/13 10:17:02;;;;;;;15.03;10.80;;;10.00;99.90;;;;;;5056682;28;20219;-86
2022/11/13 10:19:41;;;;;;;15.63;11.17;;;10.00;99.90;;;;;;5054367;28;20616;-82
2022/11/13 10:22:44;;;;;;;15.13;11.23;;;10.00;99.90;;;;;;5056246;28;20171;-84
2022/11/13 10:25:16;;;;;;;14.13;11.10;;;10.10;99.90;;;;;;5056150;28;20189;-84
2022/11/13 10:27:43;;;;;;;13.20;10.47;;;10.10;99.90;;;;;;5057369;28;20177;-85
2022/11/13 10:30:17;;;;;;;13.73;10.50;;;10.20;99.90;;;;;;5055983;28;20195;-82
2022/11/13 10:32:45;;;;;;;13.43;9.90;;;10.20;99.90;;;;;;5057464;28;20179;-84
2022/11/13 10:35:25;;;;;;;14.77;10.83;;;10.30;99.90;;;;;;5055896;28;20192;-84
2022/11/13 10:38:01;;;;;;;15.93;10.97;;;10.40;99.90;;;;;;5055556;28;20189;-82
2022/11/13 10:40:29;;;;;;;16.17;11.00;;;10.40;99.90;;;;;;5055179;28;20210;-84
2022/11/13 10:43:23;;;;;;;15.63;13.37;;;10.40;99.90;;;;;;5055300;28;20215;-83
2022/11/13 10:45:56;;;;;;;14.83;10.97;;;10.50;99.90;;;;;;5048104;28;20176;-84
2022/11/13 10:48:26;;;;;;;16.53;11.93;;;10.60;99.90;;;;;;5055315;28;20259;-85
2022/11/13 10:50:57;;;;;;;16.10;12.73;;;10.60;99.90;;;;;;5055616;28;20179;-86
2022/11/13 10:53:26;;;;;;;14.83;11.60;;;10.70;99.90;;;;;;5055199;28;20168;-84
2022/11/13 10:55:55;;;;;;;14.27;11.10;;;10.70;99.90;;;;;;5054291;28;20187;-80
2022/11/13 10:58:21;;;;;;;16.27;12.30;;;10.60;99.90;;;;;;5055999;28;20200;-83
2022/11/13 11:00:48;;;;;;;16.63;11.67;;;10.70;99.90;;;;;;5055355;28;20713;-82
2022/11/13 11:03:20;;;;;;;14.13;11.40;;;10.70;99.90;;;;;;5053464;28;20187;-81
2022/11/13 11:05:57;;;;;;;14.53;11.30;;;10.70;99.90;;;;;;5058838;28;20171;-83
2022/11/13 11:08:32;;;;;;;13.90;10.93;;;10.70;99.90;;;;;;5055411;28;20173;-87
2022/11/13 11:14:18;;;;;;;16.63;11.00;;;10.80;99.90;;;;;;5069495;28;20648;-81
2022/11/13 11:16:45;;;;;;;15.40;11.83;;;10.80;99.90;;;;;;5055801;28;20230;-83
2022/11/13 11:19:14;;;;;;;14.10;11.73;;;10.80;99.90;;;;;;5054222;28;20204;-83
2022/11/13 11:21:41;;;;;;;16.10;12.50;;;10.90;99.90;;;;;;5055881;28;20175;-81
2022/11/13 11:24:27;;;;;;;15.30;11.90;;;10.90;99.90;;;;;;5066007;28;20272;-84
2022/11/13 11:27:03;;;;;;;15.80;12.37;;;10.90;99.90;;;;;;5058471;28;20165;-84
2022/11/13 11:29:58;;;;;;;14.50;11.67;;;10.90;99.90;;;;;;5057245;28;20174;-81
2022/11/13 11:32:49;;;;;;;18.07;11.70;;;10.90;99.90;;;;;;5057561;28;20631;-81
2022/11/13 11:35:23;;;;;;;15.63;11.97;;;10.90;99.90;;;;;;5057819;28;20203;-81
2022/11/13 11:37:55;;;;;;;16.13;11.87;;;11.00;99.90;;;;;;5058647;28;20208;-82
2022/11/13 11:40:26;;;;;;;17.60;11.73;;;11.00;99.90;;;;;;5059011;28;20694;-81
2022/11/13 11:43:10;;;;;;;15.50;12.23;;;11.00;99.90;;;;;;5055802;28;20190;-81
2022/11/13 11:45:40;;;;;;;16.60;12.10;;;11.10;99.90;;;;;;5055778;28;20210;-79
2022/11/13 11:48:16;;;;;;;17.37;13.10;;;11.10;99.90;;;;;;5055682;28;20650;-80
2022/11/13 11:51:20;;;;;;;17.90;13.13;;;11.10;99.90;;;;;;5055480;28;20163;-81
2022/11/13 11:53:56;;;;;;;21.23;13.73;;;11.10;99.90;;;;;;5044359;28;20582;-82
2022/11/13 11:56:32;;;;;;;20.23;13.53;;;11.10;99.90;;;;;;5053647;28;20236;-83
2022/11/13 11:59:21;;;;;;;18.10;14.03;;;11.10;99.90;;;;;;5058465;28;20747;-81
2022/11/13 12:02:24;;;;;;;16.37;13.17;;;11.20;99.90;;;;;;5054892;28;20194;-82
2022/11/13 12:05:03;;;;;;;18.97;13.50;;;11.30;99.90;;;;;;5058220;28;20239;-81
2022/11/13 12:07:55;;;;;;;19.20;14.17;;;11.20;99.90;;;;;;5055935;28;20170;-81
2022/11/13 12:10:59;;;;;;;16.73;12.77;;;11.20;99.90;;;;;;5051966;28;20184;-83
2022/11/13 12:13:49;;;;;;;18.03;13.60;;;11.20;99.90;;;;;;5053297;28;20666;-81
2022/11/13 12:16:23;;;;;;;17.03;13.60;;;11.20;99.90;;;;;;5054074;28;20246;-82
2022/11/13 12:19:00;;;;;;;19.70;14.27;;;11.10;99.90;;;;;;5059260;28;20214;-82
2022/11/13 12:21:40;;;;;;;17.03;13.93;;;11.20;99.90;;;;;;5059304;28;20169;-83
2022/11/13 12:24:34;;;;;;;19.30;14.47;;;11.20;99.90;;;;;;5055967;28;20179;-84
2022/11/13 12:27:00;;;;;;;18.83;13.83;;;11.20;99.90;;;;;;5056031;28;20264;-85
2022/11/13 12:30:00;;;;;;;19.47;14.50;;;11.20;99.90;;;;;;5059486;28;20258;-85
2022/11/13 12:33:07;;;;;;;17.73;13.67;;;11.20;99.90;;;;;;5047195;28;20198;-82
2022/11/13 12:35:33;;;;;;;18.57;14.23;;;11.10;99.90;;;;;;5057564;28;20216;-85
2022/11/13 12:38:18;;;;;;;17.97;13.07;;;11.10;99.90;;;;;;5057960;28;20199;-82
2022/11/13 12:40:57;;;;;;;19.70;13.23;;;11.10;99.90;;;;;;5060269;28;20179;-85
2022/11/13 12:43:32;;;;;;;18.13;13.10;;;11.10;99.90;;;;;;5063980;28;20198;-86
2022/11/13 12:46:10;;;;;;;16.73;12.97;;;11.20;99.90;;;;;;5059984;28;20251;-84
2022/11/13 12:48:41;;;;;;;17.20;12.53;;;11.10;99.90;;;;;;5058942;28;20730;-84
2022/11/13 12:51:11;;;;;;;14.80;11.93;;;11.00;99.90;;;;;;5064895;28;20187;-85
2022/11/13 12:53:49;;;;;;;15.10;12.20;;;11.00;99.90;;;;;;5069259;28;20188;-83
2022/11/13 12:56:59;;;;;;;16.67;12.87;;;11.10;99.90;;;;;;5058226;28;20270;-86
2022/11/13 13:00:10;;;;;;;14.77;12.03;;;11.10;99.90;;;;;;5035112;28;20619;-85
2022/11/13 13:03:01;;;;;;;18.67;14.40;;;11.10;99.90;;;;;;5035499;28;20329;-84
2022/11/13 13:05:45;;;;;;;18.83;13.30;;;11.10;99.90;;;;;;5034033;28;20185;-81
2022/11/13 13:08:33;;;;;;;22.77;14.33;;;11.10;99.90;;;;;;5034185;28;20238;-83